Current Weather

San Jose

San Jose, Bolivia (SLJE)

Report from: Friday, December 2, 2022 2:00 PM -04
Current time: Sunday, December 4, 2022 7:58 AM -04

Nearby weather
Weather history
Weather forecast

Temperature28.0°C (82.4°F)
Heat index30.8°C (87.5°F)
Dew point22.0°C (71.6°F)
Winds 10 kts (5.1 m/s, 11.5 mph) South (180°)
Visibility6.2 mi. (10 km)
Clouds Ceiling: Broken clouds 1,700 ft. (518 m)
Altimeter29.91 in.Hg (1013 mB)
Relative humidity70 %
Density altitude1,860 ft. (567 m)
Flight conditions Marginal Visual Meteorological Conditions
Raw dataSLJE 021800Z 18010KT 9999 BKN017 28/22 Q1013
An error has occurred. This application may no longer respond until reloaded. Reload 🗙